Time;durP1;ratioP1;P1;durP2;ratioP2;P2;SDS_P1;SDS_P2;PMS_P1;PMS_P2;Temp;Humidity;BMP_temperature;BMP_pressure;BME280_temperature;BME280_humidity;BME280_pressure;Samples;Min_cycle;Max_cycle;Signal;HPM_P1;HPM_P2
2023/03/31 00:00:51;;;;;;;13.05;7.63;;;;;;;;;;6307984;22;20012;-61
2023/03/31 00:03:22;;;;;;;13.27;7.35;;;;;;;;;;6307819;22;20098;-61
2023/03/31 00:06:00;;;;;;;13.98;8.50;;;;;;;;;;6307857;22;20078;-61
2023/03/31 00:08:34;;;;;;;13.30;8.35;;;;;;;;;;6308088;22;20383;-60
2023/03/31 00:11:03;;;;;;;15.10;7.85;;;;;;;;;;6307737;22;20018;-60
2023/03/31 00:13:31;;;;;;;13.23;8.13;;;;;;;;;;6307637;22;20090;-61
2023/03/31 00:16:00;;;;;;;15.07;8.45;;;;;;;;;;6307606;22;20062;-61
2023/03/31 00:18:28;;;;;;;14.43;8.70;;;;;;;;;;6307596;22;20019;-61
2023/03/31 00:21:28;;;;;;;16.63;9.00;;;;;;;;;;6307587;22;20011;-61
2023/03/31 00:23:57;;;;;;;17.02;8.93;;;;;;;;;;6307700;22;20042;-61
2023/03/31 00:26:26;;;;;;;14.52;8.30;;;;;;;;;;6307616;22;20019;-60
2023/03/31 00:28:54;;;;;;;13.90;8.15;;;;;;;;;;6254836;22;20069;-60
2023/03/31 00:31:22;;;;;;;14.30;8.80;;;;;;;;;;6307466;22;20049;-60
2023/03/31 00:33:50;;;;;;;15.48;8.63;;;;;;;;;;6279990;22;20056;-60
2023/03/31 00:36:20;;;;;;;15.23;8.23;;;;;;;;;;6307308;22;20015;-60
2023/03/31 00:38:48;;;;;;;16.15;8.15;;;;;;;;;;6307345;22;20045;-60
2023/03/31 00:41:15;;;;;;;17.85;8.52;;;;;;;;;;6280101;22;20035;-60
2023/03/31 00:44:05;;;;;;;18.83;9.73;;;;;;;;;;6279743;22;20380;-60
2023/03/31 00:46:34;;;;;;;15.57;8.88;;;;;;;;;;6280054;22;20073;-60
2023/03/31 00:49:02;;;;;;;16.10;9.10;;;;;;;;;;6279849;22;20027;-61
2023/03/31 00:51:32;;;;;;;15.65;9.18;;;;;;;;;;6279907;22;20015;-60
2023/03/31 00:54:04;;;;;;;13.63;7.95;;;;;;;;;;6279941;22;20099;-60
2023/03/31 00:56:36;;;;;;;17.55;9.05;;;;;;;;;;6279958;22;20542;-61
2023/03/31 00:59:07;;;;;;;15.48;8.80;;;;;;;;;;6280014;22;20015;-61
2023/03/31 01:01:34;;;;;;;15.05;8.32;;;;;;;;;;6307372;22;20037;-61
2023/03/31 01:04:04;;;;;;;18.90;9.00;;;;;;;;;;6279954;22;20468;-61
2023/03/31 01:06:32;;;;;;;14.38;8.35;;;;;;;;;;6279933;22;20023;-59
2023/03/31 01:09:02;;;;;;;14.95;8.25;;;;;;;;;;6307192;22;20011;-60
2023/03/31 01:11:30;;;;;;;17.67;8.27;;;;;;;;;;6279900;22;20023;-60
2023/03/31 01:13:58;;;;;;;15.65;7.80;;;;;;;;;;6280126;22;20027;-60
2023/03/31 01:16:25;;;;;;;14.52;7.88;;;;;;;;;;6307021;22;20011;-60
2023/03/31 01:18:56;;;;;;;13.57;7.50;;;;;;;;;;6280010;22;20046;-60
2023/03/31 01:21:44;;;;;;;14.73;8.45;;;;;;;;;;6307186;22;20015;-60
2023/03/31 01:24:14;;;;;;;18.30;8.32;;;;;;;;;;6307018;22;20039;-60
2023/03/31 01:26:45;;;;;;;13.27;8.38;;;;;;;;;;6279572;22;20021;-60
2023/03/31 01:29:14;;;;;;;12.10;7.93;;;;;;;;;;6279689;22;20102;-60
2023/03/31 01:31:54;;;;;;;14.52;7.88;;;;;;;;;;6306964;22;20432;-61
2023/03/31 01:34:39;;;;;;;14.45;7.55;;;;;;;;;;6279995;22;20023;-61
2023/03/31 01:37:10;;;;;;;16.63;8.52;;;;;;;;;;6279414;22;20019;-61
2023/03/31 01:39:56;;;;;;;16.15;8.52;;;;;;;;;;6279582;22;20025;-61
2023/03/31 01:42:42;;;;;;;17.10;9.02;;;;;;;;;;6279694;22;20437;-60
2023/03/31 01:45:11;;;;;;;15.77;8.63;;;;;;;;;;6279605;22;20027;-61
2023/03/31 01:47:44;;;;;;;15.63;8.90;;;;;;;;;;6307271;22;20090;-61
2023/03/31 01:50:22;;;;;;;15.20;8.40;;;;;;;;;;6279436;22;20372;-60
2023/03/31 01:52:49;;;;;;;15.50;8.30;;;;;;;;;;6306889;22;20332;-60
2023/03/31 01:55:37;;;;;;;16.60;8.23;;;;;;;;;;6279599;22;20098;-61
2023/03/31 01:58:13;;;;;;;15.13;9.10;;;;;;;;;;6306780;22;20015;-60
2023/03/31 02:00:50;;;;;;;15.27;8.70;;;;;;;;;;6279522;22;20019;-61
2023/03/31 02:03:22;;;;;;;13.23;8.18;;;;;;;;;;6306822;22;20270;-60
2023/03/31 02:05:55;;;;;;;14.15;7.82;;;;;;;;;;6306704;22;20016;-61
2023/03/31 02:08:25;;;;;;;15.38;8.52;;;;;;;;;;6279382;22;20015;-60
2023/03/31 02:10:53;;;;;;;14.05;8.13;;;;;;;;;;6279410;22;20046;-60
2023/03/31 02:13:22;;;;;;;14.05;8.57;;;;;;;;;;6306794;22;20016;-61
2023/03/31 02:15:56;;;;;;;12.55;6.95;;;;;;;;;;6279675;22;20054;-60
2023/03/31 02:18:25;;;;;;;13.90;7.63;;;;;;;;;;6306678;22;20096;-61
2023/03/31 02:20:56;;;;;;;10.77;6.40;;;;;;;;;;6306633;22;20244;-61
2023/03/31 02:23:28;;;;;;;10.68;6.35;;;;;;;;;;6279832;22;20084;-61
2023/03/31 02:26:04;;;;;;;10.45;6.35;;;;;;;;;;6306780;22;20472;-61
2023/03/31 02:28:32;;;;;;;8.88;6.22;;;;;;;;;;6279384;22;20019;-60
2023/03/31 02:31:12;;;;;;;12.15;6.43;;;;;;;;;;6279615;22;20123;-61
2023/03/31 02:33:40;;;;;;;10.95;6.20;;;;;;;;;;6279507;22;20030;-61
2023/03/31 02:36:08;;;;;;;10.63;5.78;;;;;;;;;;6279322;22;20024;-61
2023/03/31 02:39:04;;;;;;;10.35;6.43;;;;;;;;;;6279263;22;20027;-60
2023/03/31 02:41:32;;;;;;;14.90;7.90;;;;;;;;;;6303116;22;20046;-61
2023/03/31 02:43:59;;;;;;;16.42;8.55;;;;;;;;;;6279254;22;20024;-61
2023/03/31 02:46:28;;;;;;;19.58;9.77;;;;;;;;;;6279272;22;20019;-61
2023/03/31 02:48:57;;;;;;;19.90;10.60;;;;;;;;;;6279265;22;20031;-61
2023/03/31 02:51:44;;;;;;;20.98;9.77;;;;;;;;;;6279225;22;20015;-60
2023/03/31 02:54:17;;;;;;;15.30;8.40;;;;;;;;;;6279161;22;20030;-60
2023/03/31 02:57:06;;;;;;;14.85;9.23;;;;;;;;;;6279116;22;20529;-61
2023/03/31 02:59:34;;;;;;;14.93;8.55;;;;;;;;;;6279225;22;20070;-60
2023/03/31 03:02:04;;;;;;;17.27;8.73;;;;;;;;;;6279132;22;20069;-59
2023/03/31 03:04:33;;;;;;;15.05;8.95;;;;;;;;;;6280669;22;20060;-61
2023/03/31 03:07:22;;;;;;;13.45;8.80;;;;;;;;;;6280898;22;20022;-61
2023/03/31 03:09:52;;;;;;;15.43;8.52;;;;;;;;;;6280681;22;20064;-61
2023/03/31 03:12:26;;;;;;;16.75;9.13;;;;;;;;;;6308137;22;20023;-60
2023/03/31 03:15:06;;;;;;;15.32;9.85;;;;;;;;;;6280839;22;20046;-60
2023/03/31 03:17:33;;;;;;;15.63;9.50;;;;;;;;;;6308131;22;20445;-59
2023/03/31 03:20:05;;;;;;;13.43;9.50;;;;;;;;;;6308071;22;20465;-60
2023/03/31 03:22:33;;;;;;;16.17;9.60;;;;;;;;;;6308369;22;20016;-61
2023/03/31 03:25:00;;;;;;;17.13;10.35;;;;;;;;;;6308148;22;20433;-60
2023/03/31 03:27:28;;;;;;;18.48;9.48;;;;;;;;;;6308465;22;20539;-60
2023/03/31 03:29:56;;;;;;;17.50;9.90;;;;;;;;;;6308029;22;20035;-61
2023/03/31 03:32:23;;;;;;;15.65;9.88;;;;;;;;;;6308174;22;20019;-60
2023/03/31 03:34:51;;;;;;;16.25;9.15;;;;;;;;;;6308106;22;20430;-61
2023/03/31 03:37:18;;;;;;;15.02;9.20;;;;;;;;;;6307925;22;20019;-60
2023/03/31 03:39:46;;;;;;;12.93;8.43;;;;;;;;;;6308000;22;20406;-61
2023/03/31 03:42:13;;;;;;;14.00;8.93;;;;;;;;;;6307910;22;20433;-61
2023/03/31 03:44:41;;;;;;;12.55;8.40;;;;;;;;;;6307832;22;20019;-60
2023/03/31 03:47:08;;;;;;;11.43;7.10;;;;;;;;;;6308225;22;20069;-61
2023/03/31 03:49:36;;;;;;;14.73;8.52;;;;;;;;;;6307890;22;20082;-60
2023/03/31 03:52:03;;;;;;;16.45;8.55;;;;;;;;;;6307855;22;20015;-60
2023/03/31 03:54:31;;;;;;;11.50;7.05;;;;;;;;;;6307726;22;20018;-61
2023/03/31 03:56:58;;;;;;;9.25;5.95;;;;;;;;;;6307594;22;20022;-61
2023/03/31 03:59:26;;;;;;;9.23;6.78;;;;;;;;;;6308093;22;20038;-60
2023/03/31 04:01:53;;;;;;;15.88;7.32;;;;;;;;;;6307657;22;20011;-61
2023/03/31 04:04:21;;;;;;;13.90;6.95;;;;;;;;;;6308462;22;20021;-61
2023/03/31 04:06:48;;;;;;;11.13;6.80;;;;;;;;;;6307754;22;20049;-61
2023/03/31 04:09:16;;;;;;;12.52;6.95;;;;;;;;;;6280746;22;20015;-61
2023/03/31 04:11:43;;;;;;;10.70;6.25;;;;;;;;;;6307444;22;20310;-61
2023/03/31 04:14:10;;;;;;;11.13;6.57;;;;;;;;;;6307477;22;20019;-61
2023/03/31 04:16:39;;;;;;;9.55;6.43;;;;;;;;;;6307816;22;20380;-60
2023/03/31 04:19:07;;;;;;;15.50;7.65;;;;;;;;;;6307510;22;20015;-61
2023/03/31 04:21:34;;;;;;;10.32;6.82;;;;;;;;;;6307281;22;20012;-60
2023/03/31 04:24:03;;;;;;;11.00;6.85;;;;;;;;;;6307370;22;20441;-61
2023/03/31 04:26:41;;;;;;;10.15;6.68;;;;;;;;;;6307276;22;20062;-61
2023/03/31 04:29:15;;;;;;;8.88;6.20;;;;;;;;;;6306978;22;20445;-62
2023/03/31 04:31:43;;;;;;;8.32;6.18;;;;;;;;;;6307132;22;20037;-61
2023/03/31 04:34:14;;;;;;;9.65;6.30;;;;;;;;;;6307175;22;20090;-61
2023/03/31 04:36:46;;;;;;;9.15;6.20;;;;;;;;;;6307072;22;20463;-61
2023/03/31 04:39:25;;;;;;;9.82;6.32;;;;;;;;;;6307220;22;20026;-61
2023/03/31 04:41:53;;;;;;;8.80;6.03;;;;;;;;;;6307469;22;20057;-61
2023/03/31 04:44:20;;;;;;;10.52;7.30;;;;;;;;;;6307373;22;20500;-61
2023/03/31 04:46:48;;;;;;;10.18;6.93;;;;;;;;;;6280340;22;20039;-61
2023/03/31 04:49:15;;;;;;;12.50;8.13;;;;;;;;;;6306120;22;20011;-61
2023/03/31 04:51:43;;;;;;;11.85;7.75;;;;;;;;;;6306977;22;20039;-62
2023/03/31 04:54:11;;;;;;;11.73;8.88;;;;;;;;;;6307055;22;20019;-61
2023/03/31 04:56:38;;;;;;;12.77;8.63;;;;;;;;;;6307033;22;20018;-60
2023/03/31 04:59:07;;;;;;;15.77;8.98;;;;;;;;;;6306753;22;20015;-61
2023/03/31 05:01:35;;;;;;;11.30;7.75;;;;;;;;;;6307291;22;20034;-60
2023/03/31 05:04:04;;;;;;;11.32;7.22;;;;;;;;;;6307414;22;20015;-60
2023/03/31 05:06:32;;;;;;;12.20;7.45;;;;;;;;;;6307429;22;20015;-60
2023/03/31 05:08:59;;;;;;;14.40;8.30;;;;;;;;;;6307380;22;20082;-60
2023/03/31 05:11:27;;;;;;;15.55;8.95;;;;;;;;;;6280393;22;20077;-61
2023/03/31 05:13:55;;;;;;;14.60;8.77;;;;;;;;;;6307076;22;20022;-61
2023/03/31 05:16:23;;;;;;;13.43;8.50;;;;;;;;;;6307233;22;20069;-61
2023/03/31 05:18:50;;;;;;;12.48;8.85;;;;;;;;;;6307175;22;20019;-61
2023/03/31 05:21:19;;;;;;;13.73;10.38;;;;;;;;;;6306997;22;20011;-62
2023/03/31 05:23:47;;;;;;;14.48;9.40;;;;;;;;;;6307096;22;20043;-61
2023/03/31 05:26:15;;;;;;;15.10;9.52;;;;;;;;;;6306712;22;20445;-61
2023/03/31 05:28:42;;;;;;;16.83;9.75;;;;;;;;;;6303750;22;20025;-61
2023/03/31 05:31:11;;;;;;;14.85;10.18;;;;;;;;;;6306238;22;20322;-62
2023/03/31 05:33:40;;;;;;;18.73;10.10;;;;;;;;;;6306385;22;20015;-62
2023/03/31 05:36:12;;;;;;;16.92;9.82;;;;;;;;;;6305890;22;20441;-61
2023/03/31 05:38:40;;;;;;;18.65;10.02;;;;;;;;;;6306225;22;20043;-61
2023/03/31 05:41:08;;;;;;;18.02;9.98;;;;;;;;;;6305805;22;20022;-61
2023/03/31 05:43:36;;;;;;;13.55;9.32;;;;;;;;;;6306448;22;20019;-61
2023/03/31 05:46:04;;;;;;;13.02;9.13;;;;;;;;;;6306049;22;20094;-62
2023/03/31 05:48:32;;;;;;;14.75;9.02;;;;;;;;;;6306446;22;20471;-61
2023/03/31 05:51:00;;;;;;;11.82;8.60;;;;;;;;;;6306380;22;20015;-60
2023/03/31 05:53:28;;;;;;;12.93;7.90;;;;;;;;;;6306199;22;20088;-61
2023/03/31 05:55:57;;;;;;;12.82;8.50;;;;;;;;;;6306588;22;20015;-61
2023/03/31 05:58:25;;;;;;;15.95;9.05;;;;;;;;;;6306515;22;20015;-61
2023/03/31 06:01:09;;;;;;;15.70;9.52;;;;;;;;;;6306656;22;20016;-61
2023/03/31 06:03:40;;;;;;;12.85;9.43;;;;;;;;;;6306632;22;20039;-60
2023/03/31 06:06:08;;;;;;;14.32;8.65;;;;;;;;;;6306537;22;20019;-60
2023/03/31 06:08:39;;;;;;;12.75;8.20;;;;;;;;;;6278987;22;20085;-59
2023/03/31 06:11:11;;;;;;;12.05;8.18;;;;;;;;;;6306366;22;20015;-60
2023/03/31 06:13:39;;;;;;;13.07;8.40;;;;;;;;;;6306105;22;20042;-59
2023/03/31 06:16:07;;;;;;;12.77;8.45;;;;;;;;;;6306244;22;20094;-60
2023/03/31 06:18:35;;;;;;;12.75;8.38;;;;;;;;;;6305743;22;20015;-60
2023/03/31 06:21:03;;;;;;;11.10;7.20;;;;;;;;;;6306549;22;20380;-61
2023/03/31 06:23:31;;;;;;;10.77;7.22;;;;;;;;;;6306266;22;20019;-61
2023/03/31 06:26:02;;;;;;;12.18;8.18;;;;;;;;;;6306306;22;20019;-61
2023/03/31 06:28:30;;;;;;;13.98;10.60;;;;;;;;;;6306555;22;20015;-61
2023/03/31 06:31:01;;;;;;;14.70;9.65;;;;;;;;;;6306539;22;20054;-60
2023/03/31 06:33:29;;;;;;;16.17;10.18;;;;;;;;;;6279521;22;20511;-60
2023/03/31 06:35:58;;;;;;;15.82;8.90;;;;;;;;;;6306196;22;20019;-60
2023/03/31 06:38:25;;;;;;;18.45;9.23;;;;;;;;;;6307992;22;20376;-61
2023/03/31 06:40:53;;;;;;;13.73;7.90;;;;;;;;;;6308834;22;20050;-60
2023/03/31 06:43:20;;;;;;;13.30;8.40;;;;;;;;;;6308281;22;20027;-61
2023/03/31 06:45:48;;;;;;;14.75;8.98;;;;;;;;;;6308523;22;20018;-60
2023/03/31 06:48:18;;;;;;;10.80;8.00;;;;;;;;;;6308774;22;20011;-60
2023/03/31 06:50:46;;;;;;;12.80;8.32;;;;;;;;;;6308527;22;20023;-60
2023/03/31 06:53:13;;;;;;;12.40;8.25;;;;;;;;;;6308340;22;20260;-60
2023/03/31 06:55:41;;;;;;;12.32;7.85;;;;;;;;;;6308318;22;20461;-60
2023/03/31 06:58:08;;;;;;;10.63;7.70;;;;;;;;;;6308253;22;20495;-60
2023/03/31 07:00:36;;;;;;;12.73;8.07;;;;;;;;;;6308259;22;20019;-60
2023/03/31 07:03:05;;;;;;;12.30;8.23;;;;;;;;;;6280965;22;20046;-61
2023/03/31 07:05:33;;;;;;;12.18;7.68;;;;;;;;;;6308533;22;20105;-61
2023/03/31 07:08:00;;;;;;;12.05;7.75;;;;;;;;;;6307774;22;20038;-61
2023/03/31 07:10:29;;;;;;;11.10;7.75;;;;;;;;;;6307754;22;20106;-61
2023/03/31 07:12:56;;;;;;;10.90;7.57;;;;;;;;;;6308196;22;20069;-60
2023/03/31 07:15:24;;;;;;;9.25;7.00;;;;;;;;;;6308188;22;20089;-60
2023/03/31 07:17:52;;;;;;;9.63;6.70;;;;;;;;;;6308075;22;20318;-60
2023/03/31 07:20:20;;;;;;;10.85;6.95;;;;;;;;;;6280814;22;20016;-61
2023/03/31 07:22:51;;;;;;;9.98;6.57;;;;;;;;;;6308037;22;20019;-61
2023/03/31 07:25:19;;;;;;;11.63;7.70;;;;;;;;;;6308045;22;20019;-61
2023/03/31 07:27:47;;;;;;;17.83;15.55;;;;;;;;;;6308452;22;20065;-61
2023/03/31 07:30:19;;;;;;;16.27;12.93;;;;;;;;;;6307812;22;20011;-61
2023/03/31 07:32:47;;;;;;;11.80;8.52;;;;;;;;;;6307898;22;20397;-61
2023/03/31 07:35:15;;;;;;;10.45;8.43;;;;;;;;;;6308316;22;20019;-61
2023/03/31 07:37:44;;;;;;;11.13;8.10;;;;;;;;;;6307897;22;20064;-61
2023/03/31 07:40:14;;;;;;;11.48;7.50;;;;;;;;;;6308365;22;20074;-61
2023/03/31 07:42:43;;;;;;;9.70;6.60;;;;;;;;;;6308037;22;20023;-63
2023/03/31 07:45:15;;;;;;;11.27;6.40;;;;;;;;;;6308205;22;20073;-61
2023/03/31 07:47:45;;;;;;;9.30;6.35;;;;;;;;;;6307988;22;20039;-61
2023/03/31 07:50:13;;;;;;;9.60;6.35;;;;;;;;;;6307544;22;20437;-60
2023/03/31 07:52:41;;;;;;;8.32;5.72;;;;;;;;;;6307925;22;20011;-61
2023/03/31 07:55:12;;;;;;;8.85;5.90;;;;;;;;;;6307876;22;20019;-62
2023/03/31 07:57:40;;;;;;;7.63;5.85;;;;;;;;;;6308220;22;20012;-61
2023/03/31 08:00:11;;;;;;;8.65;6.03;;;;;;;;;;6307782;22;20020;-62
2023/03/31 08:02:41;;;;;;;10.02;6.45;;;;;;;;;;6307944;22;20073;-60
2023/03/31 08:05:10;;;;;;;7.43;5.75;;;;;;;;;;6307879;22;20441;-61
2023/03/31 08:07:40;;;;;;;8.85;5.85;;;;;;;;;;6307801;22;20022;-60
2023/03/31 08:10:10;;;;;;;9.25;5.15;;;;;;;;;;6307774;22;20384;-61
2023/03/31 08:12:37;;;;;;;10.45;5.93;;;;;;;;;;6307612;22;20026;-60
2023/03/31 08:15:05;;;;;;;10.18;6.70;;;;;;;;;;6307630;22;20453;-61
2023/03/31 08:17:33;;;;;;;10.45;5.68;;;;;;;;;;6307602;22;20030;-60
2023/03/31 08:20:00;;;;;;;8.85;6.10;;;;;;;;;;6307439;22;20022;-61
2023/03/31 08:22:33;;;;;;;7.38;5.90;;;;;;;;;;6307945;22;20012;-61
2023/03/31 08:25:01;;;;;;;7.70;5.85;;;;;;;;;;6307960;22;20065;-61
2023/03/31 08:27:32;;;;;;;9.32;6.13;;;;;;;;;;6307574;22;20019;-60
2023/03/31 08:30:03;;;;;;;9.05;6.82;;;;;;;;;;6280109;22;20037;-61
2023/03/31 08:32:31;;;;;;;8.13;6.32;;;;;;;;;;6307498;22;20015;-61
2023/03/31 08:34:59;;;;;;;9.40;6.15;;;;;;;;;;6307453;22;20016;-61
2023/03/31 08:37:27;;;;;;;9.10;5.43;;;;;;;;;;6307381;22;20023;-61
2023/03/31 08:39:55;;;;;;;11.82;6.65;;;;;;;;;;6307273;22;20015;-60
2023/03/31 08:42:26;;;;;;;10.20;6.25;;;;;;;;;;6307295;22;20019;-61
2023/03/31 08:44:53;;;;;;;8.93;6.10;;;;;;;;;;6307400;22;20019;-61
2023/03/31 08:47:22;;;;;;;9.60;7.28;;;;;;;;;;6307699;22;20058;-61
2023/03/31 08:49:51;;;;;;;12.68;10.60;;;;;;;;;;6307303;22;20020;-60
2023/03/31 08:52:23;;;;;;;13.40;10.88;;;;;;;;;;6307239;22;20057;-60
2023/03/31 08:54:56;;;;;;;10.90;7.40;;;;;;;;;;6307287;22;20446;-61
2023/03/31 08:57:30;;;;;;;12.38;5.93;;;;;;;;;;6307293;22;20021;-61
2023/03/31 09:00:05;;;;;;;8.38;5.60;;;;;;;;;;6307471;22;20061;-61
2023/03/31 09:02:47;;;;;;;8.60;5.72;;;;;;;;;;6306977;22;20436;-60
2023/03/31 09:05:33;;;;;;;10.57;5.43;;;;;;;;;;6307169;22;20019;-61
2023/03/31 09:08:24;;;;;;;10.35;5.43;;;;;;;;;;6307142;22;20016;-61
2023/03/31 09:10:55;;;;;;;12.88;5.45;;;;;;;;;;6280403;22;20019;-60
2023/03/31 09:13:29;;;;;;;8.98;5.50;;;;;;;;;;6307163;22;20053;-61
2023/03/31 09:16:16;;;;;;;6.38;4.50;;;;;;;;;;6307073;22;20069;-61
2023/03/31 09:18:45;;;;;;;8.30;5.18;;;;;;;;;;6307017;22;20030;-61
2023/03/31 09:21:25;;;;;;;9.73;5.18;;;;;;;;;;6307314;22;20166;-61
2023/03/31 09:23:56;;;;;;;8.80;4.97;;;;;;;;;;6307384;22;20038;-61
2023/03/31 09:26:26;;;;;;;6.78;4.20;;;;;;;;;;6307166;22;20073;-60
2023/03/31 09:28:55;;;;;;;8.82;5.00;;;;;;;;;;6306927;22;20078;-61
2023/03/31 09:31:23;;;;;;;9.60;5.07;;;;;;;;;;6307031;22;20050;-61
2023/03/31 09:33:54;;;;;;;7.07;4.80;;;;;;;;;;6306951;22;20441;-61
2023/03/31 09:36:21;;;;;;;9.30;5.00;;;;;;;;;;6280017;22;20095;-61
2023/03/31 09:38:49;;;;;;;12.10;5.00;;;;;;;;;;6279998;22;20019;-61
2023/03/31 09:41:18;;;;;;;7.25;4.95;;;;;;;;;;6306870;22;20015;-61
2023/03/31 09:43:46;;;;;;;9.60;5.05;;;;;;;;;;6306789;22;20016;-61
2023/03/31 09:46:25;;;;;;;11.38;5.85;;;;;;;;;;6306936;22;20019;-60
2023/03/31 09:49:25;;;;;;;9.13;5.40;;;;;;;;;;6306904;22;20338;-61
2023/03/31 09:52:01;;;;;;;9.23;5.15;;;;;;;;;;6256120;22;20026;-61
2023/03/31 09:54:41;;;;;;;8.13;5.43;;;;;;;;;;6306737;22;20015;-60
2023/03/31 09:57:34;;;;;;;7.05;5.25;;;;;;;;;;6306734;22;20412;-60
2023/03/31 10:00:13;;;;;;;7.20;4.85;;;;;;;;;;6303708;22;20023;-60
2023/03/31 10:02:44;;;;;;;11.98;5.28;;;;;;;;;;6307321;22;20015;-61
2023/03/31 10:05:21;;;;;;;5.80;4.57;;;;;;;;;;6306902;22;20019;-61
2023/03/31 10:07:48;;;;;;;10.60;5.07;;;;;;;;;;6306856;22;20015;-60
2023/03/31 10:10:28;;;;;;;11.15;5.43;;;;;;;;;;6306991;22;20062;-60
2023/03/31 10:12:55;;;;;;;8.38;5.40;;;;;;;;;;6308047;22;20053;-61
2023/03/31 10:15:27;;;;;;;8.25;5.25;;;;;;;;;;6308641;22;20015;-61
2023/03/31 10:17:58;;;;;;;7.63;5.20;;;;;;;;;;6308774;22;20015;-60
2023/03/31 10:20:52;;;;;;;10.80;5.32;;;;;;;;;;6309211;22;20042;-60
2023/03/31 10:23:23;;;;;;;7.15;4.22;;;;;;;;;;6305356;22;20016;-61
2023/03/31 10:25:50;;;;;;;6.05;4.30;;;;;;;;;;6308918;22;20015;-61
2023/03/31 10:28:19;;;;;;;5.45;4.15;;;;;;;;;;6308817;22;20015;-61
2023/03/31 10:30:54;;;;;;;7.43;4.40;;;;;;;;;;6308255;22;20011;-60
2023/03/31 10:33:26;;;;;;;6.60;4.13;;;;;;;;;;6309037;22;20087;-61
2023/03/31 10:35:58;;;;;;;7.25;3.50;;;;;;;;;;6308722;22;20026;-61
2023/03/31 10:38:38;;;;;;;3.88;2.92;;;;;;;;;;6281942;22;20303;-61
2023/03/31 10:41:06;;;;;;;5.97;3.30;;;;;;;;;;6308703;22;20019;-61
2023/03/31 10:43:41;;;;;;;5.47;2.90;;;;;;;;;;6308365;22;20015;-60
2023/03/31 10:46:09;;;;;;;5.50;2.30;;;;;;;;;;6308388;22;20019;-61
2023/03/31 10:48:41;;;;;;;3.13;2.33;;;;;;;;;;6308345;22;20022;-61
2023/03/31 10:51:16;;;;;;;7.45;2.60;;;;;;;;;;6308542;22;20336;-61
2023/03/31 10:53:43;;;;;;;5.50;3.00;;;;;;;;;;6308313;22;20019;-61
2023/03/31 10:56:21;;;;;;;3.72;2.63;;;;;;;;;;6280747;22;20506;-61
2023/03/31 10:58:58;;;;;;;5.45;2.85;;;;;;;;;;6308545;22;20094;-60
2023/03/31 11:01:47;;;;;;;5.13;3.17;;;;;;;;;;6308217;22;20019;-60
2023/03/31 11:04:24;;;;;;;10.20;3.10;;;;;;;;;;6281305;22;20011;-61
2023/03/31 11:07:01;;;;;;;6.68;3.13;;;;;;;;;;6308407;22;20016;-61
2023/03/31 11:09:31;;;;;;;5.25;3.10;;;;;;;;;;6308205;22;20042;-61
2023/03/31 11:12:11;;;;;;;6.18;3.38;;;;;;;;;;6308588;22;20338;-61
2023/03/31 11:14:41;;;;;;;4.75;2.83;;;;;;;;;;6308257;22;20020;-61
2023/03/31 11:17:09;;;;;;;5.45;3.08;;;;;;;;;;6308291;22;20022;-61
2023/03/31 11:19:36;;;;;;;3.97;2.63;;;;;;;;;;6308321;22;20015;-61
2023/03/31 11:22:12;;;;;;;5.10;2.70;;;;;;;;;;6308381;22;20437;-61
2023/03/31 11:24:43;;;;;;;5.38;2.55;;;;;;;;;;6308060;22;20073;-61
2023/03/31 11:27:23;;;;;;;4.68;2.58;;;;;;;;;;6308138;22;20023;-61
2023/03/31 11:30:00;;;;;;;3.75;2.50;;;;;;;;;;6308165;22;20382;-61
2023/03/31 11:32:39;;;;;;;5.20;3.33;;;;;;;;;;6308141;22;20041;-61
2023/03/31 11:35:28;;;;;;;5.20;2.85;;;;;;;;;;6307949;22;20151;-61
2023/03/31 11:37:55;;;;;;;4.28;2.60;;;;;;;;;;6280795;22;20034;-61
2023/03/31 11:40:23;;;;;;;3.85;2.38;;;;;;;;;;6280337;22;20016;-61
2023/03/31 11:42:57;;;;;;;5.63;2.60;;;;;;;;;;6307849;22;20495;-61
2023/03/31 11:45:35;;;;;;;5.23;2.80;;;;;;;;;;6307771;22;20019;-61
2023/03/31 11:48:06;;;;;;;3.45;2.63;;;;;;;;;;6307959;22;20035;-60
2023/03/31 11:50:37;;;;;;;4.05;2.80;;;;;;;;;;6307606;22;20053;-61
2023/03/31 11:53:15;;;;;;;5.45;2.92;;;;;;;;;;6307889;22;20015;-60
2023/03/31 11:55:43;;;;;;;4.78;2.95;;;;;;;;;;6307939;22;20041;-61
2023/03/31 11:58:16;;;;;;;4.28;2.70;;;;;;;;;;6307875;22;20342;-62
2023/03/31 12:00:46;;;;;;;5.03;3.00;;;;;;;;;;6280471;22;20030;-61
2023/03/31 12:03:36;;;;;;;6.05;2.90;;;;;;;;;;6307893;22;20015;-61
2023/03/31 12:06:15;;;;;;;3.45;2.55;;;;;;;;;;6307774;22;20070;-61
2023/03/31 12:09:03;;;;;;;6.32;2.60;;;;;;;;;;6307677;22;20050;-59
2023/03/31 12:11:30;;;;;;;4.97;2.80;;;;;;;;;;6307753;22;20382;-62
2023/03/31 12:14:10;;;;;;;4.80;2.97;;;;;;;;;;6307441;22;20015;-61
2023/03/31 12:16:44;;;;;;;8.43;3.03;;;;;;;;;;6307413;22;20019;-61
2023/03/31 12:19:13;;;;;;;9.43;2.92;;;;;;;;;;6307660;22;20015;-61
2023/03/31 12:21:43;;;;;;;4.68;2.95;;;;;;;;;;6307376;22;20334;-60
2023/03/31 12:24:12;;;;;;;4.22;3.08;;;;;;;;;;6307480;22;20018;-62
2023/03/31 12:27:03;;;;;;;3.88;2.30;;;;;;;;;;6307741;22;20085;-61
2023/03/31 12:29:33;;;;;;;4.20;2.17;;;;;;;;;;6295872;22;20094;-61
2023/03/31 12:32:02;;;;;;;4.28;2.60;;;;;;;;;;6307403;22;20011;-61
2023/03/31 12:34:31;;;;;;;9.38;2.38;;;;;;;;;;6307361;22;20015;-61
2023/03/31 12:36:59;;;;;;;5.22;2.63;;;;;;;;;;6307477;22;20445;-62
2023/03/31 12:39:33;;;;;;;5.90;2.40;;;;;;;;;;6307288;22;20054;-62
2023/03/31 12:42:00;;;;;;;5.72;2.08;;;;;;;;;;6279973;22;20027;-61
2023/03/31 12:44:43;;;;;;;6.80;1.98;;;;;;;;;;6307418;22;20011;-61
2023/03/31 12:47:22;;;;;;;5.13;2.65;;;;;;;;;;6307297;22;20046;-61
2023/03/31 12:50:13;;;;;;;5.47;2.20;;;;;;;;;;6280252;22;20452;-61
2023/03/31 12:52:49;;;;;;;5.65;2.80;;;;;;;;;;6280610;22;20012;-61
2023/03/31 12:55:27;;;;;;;5.50;2.10;;;;;;;;;;6307471;22;20015;-61
2023/03/31 12:58:14;;;;;;;11.00;2.60;;;;;;;;;;6307128;22;20026;-62
2023/03/31 13:01:00;;;;;;;5.30;2.47;;;;;;;;;;6307134;22;20026;-61
2023/03/31 13:03:47;;;;;;;5.15;2.15;;;;;;;;;;6307192;22;20045;-61
2023/03/31 13:06:27;;;;;;;6.45;2.47;;;;;;;;;;6307123;22;20015;-61
2023/03/31 13:08:54;;;;;;;4.25;2.00;;;;;;;;;;6306943;22;20019;-62
2023/03/31 13:11:23;;;;;;;6.22;1.67;;;;;;;;;;6307084;22;20039;-61
2023/03/31 13:14:01;;;;;;;5.47;2.05;;;;;;;;;;6307062;22;20019;-60
2023/03/31 13:16:32;;;;;;;5.55;2.45;;;;;;;;;;6306923;22;20011;-61
2023/03/31 13:19:00;;;;;;;5.60;2.35;;;;;;;;;;6307556;22;20026;-61
2023/03/31 13:21:27;;;;;;;6.95;2.08;;;;;;;;;;6306968;22;20058;-61
2023/03/31 13:23:59;;;;;;;3.13;1.85;;;;;;;;;;6306523;22;20111;-61
2023/03/31 13:26:45;;;;;;;5.53;2.03;;;;;;;;;;6306842;22;20038;-61
2023/03/31 13:29:18;;;;;;;4.90;1.88;;;;;;;;;;6306881;22;20023;-61
2023/03/31 13:32:01;;;;;;;4.10;1.70;;;;;;;;;;6305946;22;20031;-61
2023/03/31 13:34:35;;;;;;;4.18;1.60;;;;;;;;;;6306315;22;20016;-62
2023/03/31 13:37:21;;;;;;;4.95;1.70;;;;;;;;;;6304613;22;20012;-62
2023/03/31 13:40:00;;;;;;;3.15;1.73;;;;;;;;;;6306234;22;20011;-62
2023/03/31 13:42:41;;;;;;;7.10;1.90;;;;;;;;;;6304901;22;20019;-61
2023/03/31 13:45:09;;;;;;;5.10;1.80;;;;;;;;;;6306387;22;20025;-60
2023/03/31 13:47:40;;;;;;;6.75;2.20;;;;;;;;;;6279164;22;20384;-64
2023/03/31 13:50:26;;;;;;;4.30;2.17;;;;;;;;;;6279573;22;20023;-62
2023/03/31 13:52:54;;;;;;;4.68;1.80;;;;;;;;;;6306534;22;20094;-60
2023/03/31 13:55:40;;;;;;;7.85;2.15;;;;;;;;;;6306683;22;20342;-61
2023/03/31 13:58:27;;;;;;;4.50;2.00;;;;;;;;;;6306130;22;20011;-62
2023/03/31 14:01:11;;;;;;;5.30;2.58;;;;;;;;;;6306030;22;20019;-61
2023/03/31 14:03:42;;;;;;;4.60;2.10;;;;;;;;;;6306175;22;20073;-61
2023/03/31 14:06:20;;;;;;;10.35;2.10;;;;;;;;;;6306196;22;20362;-61
2023/03/31 14:08:53;;;;;;;9.05;2.05;;;;;;;;;;6306542;22;20034;-61
2023/03/31 14:11:25;;;;;;;29.55;3.03;;;;;;;;;;6306427;22;20026;-61
2023/03/31 14:14:03;;;;;;;9.93;2.05;;;;;;;;;;6306316;22;20081;-61
2023/03/31 14:16:33;;;;;;;5.50;1.70;;;;;;;;;;6306511;22;20468;-61
2023/03/31 14:19:18;;;;;;;8.18;2.40;;;;;;;;;;6306658;22;20433;-61
2023/03/31 14:21:52;;;;;;;4.80;1.92;;;;;;;;;;6306588;22;20061;-61
2023/03/31 14:24:25;;;;;;;5.75;1.90;;;;;;;;;;6306466;22;20073;-61
2023/03/31 14:26:59;;;;;;;4.93;1.80;;;;;;;;;;6306526;22;20011;-67
2023/03/31 14:29:36;;;;;;;9.10;2.00;;;;;;;;;;6306561;22;20049;-59
2023/03/31 14:32:10;;;;;;;4.90;2.88;;;;;;;;;;6306592;22;20026;-60
2023/03/31 14:34:41;;;;;;;4.05;1.88;;;;;;;;;;6306167;22;20392;-58
2023/03/31 14:37:10;;;;;;;6.05;1.92;;;;;;;;;;6306539;22;20046;-61
2023/03/31 14:39:40;;;;;;;4.75;1.80;;;;;;;;;;6305827;22;20092;-61
2023/03/31 14:42:15;;;;;;;3.58;2.15;;;;;;;;;;6252636;22;20485;-58
2023/03/31 14:44:44;;;;;;;;;;;;;;;;;;6306683;22;20090;-59
2023/03/31 14:47:14;;;;;;;3.60;1.73;;;;;;;;;;6306244;22;20380;-61
2023/03/31 14:49:42;;;;;;;4.28;1.60;;;;;;;;;;6305474;22;20018;-59
2023/03/31 14:52:15;;;;;;;4.13;1.75;;;;;;;;;;6306106;22;20072;-59
2023/03/31 14:54:45;;;;;;;3.60;2.00;;;;;;;;;;6305826;22;20016;-58
2023/03/31 14:57:20;;;;;;;4.63;2.10;;;;;;;;;;6305900;22;20068;-57
2023/03/31 14:59:50;;;;;;;7.00;2.38;;;;;;;;;;6307472;22;20015;-59
2023/03/31 15:02:19;;;;;;;6.55;2.13;;;;;;;;;;6307514;22;20095;-59
2023/03/31 15:04:48;;;;;;;4.25;2.50;;;;;;;;;;6307563;22;20086;-58